Portada
METAR-TAF:

METAR-TAF

Aeroports :

Luganville, Illa Espíritu Santo, Vanuatu

latitud: 15-31S, longitud: 167-13E, altitud: 41 m

Observació

L'informe es va fer fa 1 hora i 32 minuts, a les 09:00 UTC
Vent 8 kt del Sud/Sud-Est
Temperatura 25°C
Humitat 83%
Pressió 1015 hPa
Visibilitat 10 km o més
Núvols disperses a una alçada de 1800 ft
Cel ennuvolat a una alçada de 5000 ft

METAR: NVSS 150900Z 15008KT 9999 SCT018 BKN050 25/22 Q1015

Hora: 21:32 (10:32 UTC)

Pronòstic

L'informe es va fer fa 6 hores i 2 minuts, a les 04:30 UTC
Pronòstic vàlid del 15 a les 06 UTC al 16 a les 06 UTC
Vent 8 kt del Sud-Est
Visibilitat: 8000 m
Escasses núvols a una alçada de 1800 ft
Cel cobert a una alçada de 4000 ft
Núvols disperses a una alçada de 1000 ft
Cel ennuvolat a una alçada de 1800 ft
xàfecs de pluja

TAF: NVSS 150430Z 1506/1606 14008KT 9999 FEW018 OVC040 INTER 1506/1512 8000 SHRA SCT010 BKN018

Observacions i pronòstics meteorològics de més de 4000 aeroports (METAR i TAF).

Les estacions disponibles són els punts grocs i vermells al mapa.

Posi el ratolí al punt desitjat per veure el nom de l'estació.

Feu clic per veure les observacions i els pronòstics meteorològics.

Per canviar el mapa: feu clic els botons verds amb una creu de color negre per apropar; al botó verd amb un guió per allunyar la imatge; o en les fletxes verdes per a mapes adjacents.


METAR-TAF: